Time;durP1;ratioP1;P1;durP2;ratioP2;P2;SDS_P1;SDS_P2;PMS_P1;PMS_P2;Temp;Humidity;BMP_temperature;BMP_pressure;BME280_temperature;BME280_humidity;BME280_pressure;Samples;Min_cycle;Max_cycle;Signal;HPM_P1;HPM_P2
2022/07/23 00:00:31;;;;;;;5.22;3.40;;;14.40;99.90;;;;;;4846921;29;20041;-90
2022/07/23 00:02:57;;;;;;;5.45;3.58;;;14.30;99.90;;;;;;4848354;29;20050;-92
2022/07/23 00:05:23;;;;;;;4.10;3.78;;;14.30;99.90;;;;;;4849233;29;20089;-91
2022/07/23 00:07:48;;;;;;;4.28;3.88;;;14.30;99.90;;;;;;4850413;29;20037;-94
2022/07/23 00:10:14;;;;;;;6.40;3.50;;;14.30;99.90;;;;;;4834886;29;20058;-90
2022/07/23 00:12:40;;;;;;;4.35;3.50;;;14.30;99.90;;;;;;4865972;29;20118;-92
2022/07/23 00:15:06;;;;;;;6.20;3.78;;;14.30;99.90;;;;;;4835146;29;20042;-91
2022/07/23 00:17:32;;;;;;;4.28;3.70;;;14.30;99.90;;;;;;4834644;29;20038;-93
2022/07/23 00:19:57;;;;;;;4.55;3.80;;;14.20;99.90;;;;;;4843690;29;20058;-93
2022/07/23 00:22:23;;;;;;;5.15;3.83;;;14.20;99.90;;;;;;4846223;29;20057;-92
2022/07/23 00:24:49;;;;;;;4.75;3.75;;;14.20;99.90;;;;;;4850045;29;20083;-91
2022/07/23 00:27:14;;;;;;;7.00;4.18;;;14.20;99.90;;;;;;4865539;29;20037;-92
2022/07/23 00:29:40;;;;;;;4.40;3.63;;;14.10;99.90;;;;;;4842096;29;20064;-94
2022/07/23 00:32:06;;;;;;;5.72;3.72;;;14.10;99.90;;;;;;4829133;29;20508;-95
2022/07/23 00:34:31;;;;;;;4.70;3.75;;;14.00;99.90;;;;;;4815546;29;20462;-94
2022/07/23 00:36:57;;;;;;;6.20;3.83;;;14.00;99.90;;;;;;4817157;29;20054;-94
2022/07/23 00:39:22;;;;;;;4.85;3.95;;;13.90;99.90;;;;;;4831380;29;20058;-95
2022/07/23 00:41:49;;;;;;;5.30;3.55;;;13.90;99.90;;;;;;4836138;29;20061;-95
2022/07/23 00:44:22;;;;;;;6.60;4.13;;;13.80;99.90;;;;;;4831010;29;20117;-93
2022/07/23 00:46:52;;;;;;;6.87;3.97;;;13.70;99.90;;;;;;4816956;29;20060;-93
2022/07/23 00:49:18;;;;;;;4.88;4.30;;;13.70;99.90;;;;;;4816216;29;20085;-93
2022/07/23 00:51:44;;;;;;;9.10;3.97;;;13.60;99.90;;;;;;4847965;29;20065;-95
2022/07/23 00:54:10;;;;;;;5.13;3.70;;;13.60;99.90;;;;;;4817019;29;20054;-93
2022/07/23 00:56:37;;;;;;;7.15;3.88;;;13.60;99.90;;;;;;4830598;29;20052;-94
2022/07/23 00:59:02;;;;;;;4.63;3.38;;;13.50;99.90;;;;;;4813440;29;20052;-93
2022/07/23 01:01:28;;;;;;;4.57;3.90;;;13.50;99.90;;;;;;4849959;29;20045;-91
2022/07/23 01:03:54;;;;;;;5.68;3.75;;;13.40;99.90;;;;;;4859816;29;20053;-93
2022/07/23 01:06:20;;;;;;;4.95;3.65;;;13.40;99.90;;;;;;4856845;29;20057;-94
2022/07/23 01:08:45;;;;;;;4.95;3.65;;;13.30;99.90;;;;;;4820181;29;20046;-95
2022/07/23 01:11:11;;;;;;;4.35;3.90;;;13.30;99.90;;;;;;4851877;29;20041;-92
2022/07/23 01:13:42;;;;;;;5.55;3.88;;;13.20;99.90;;;;;;4835101;29;20056;-94
2022/07/23 01:16:07;;;;;;;6.10;3.78;;;13.20;99.90;;;;;;4821605;29;20054;-92
2022/07/23 01:18:33;;;;;;;7.50;3.95;;;13.10;99.90;;;;;;4834790;29;20399;-93
2022/07/23 01:20:59;;;;;;;5.60;3.88;;;13.10;99.90;;;;;;4834855;29;20057;-93
2022/07/23 01:23:24;;;;;;;7.32;4.13;;;13.10;99.90;;;;;;4839435;29;20097;-94
2022/07/23 01:25:53;;;;;;;5.13;3.80;;;13.00;99.90;;;;;;4815638;29;20136;-93
2022/07/23 01:28:19;;;;;;;6.68;4.55;;;13.00;99.90;;;;;;4853289;29;20046;-93
2022/07/23 01:30:46;;;;;;;5.35;4.03;;;13.00;99.90;;;;;;4870681;29;20060;-92
2022/07/23 01:33:11;;;;;;;6.97;3.90;;;12.90;99.90;;;;;;4838350;29;20049;-92
2022/07/23 01:35:37;;;;;;;5.70;4.50;;;13.00;99.90;;;;;;4856194;29;20073;-92
2022/07/23 01:38:03;;;;;;;7.30;3.92;;;12.90;99.90;;;;;;4865728;29;20037;-94
2022/07/23 01:40:29;;;;;;;4.45;3.90;;;12.90;99.90;;;;;;4857951;29;20049;-91
2022/07/23 01:42:55;;;;;;;4.82;3.75;;;12.80;99.90;;;;;;4867556;29;20068;-93
2022/07/23 01:45:21;;;;;;;4.72;4.05;;;12.80;99.90;;;;;;4866628;29;20042;-89
2022/07/23 01:47:47;;;;;;;4.82;4.22;;;12.70;99.90;;;;;;4867441;29;20029;-93
2022/07/23 01:50:13;;;;;;;5.72;4.20;;;12.70;99.90;;;;;;4852062;29;20061;-93
2022/07/23 01:52:39;;;;;;;7.60;4.47;;;12.70;99.90;;;;;;4857190;29;20125;-92
2022/07/23 01:55:05;;;;;;;5.68;4.93;;;12.70;99.90;;;;;;4837147;29;20089;-93
2022/07/23 01:57:34;;;;;;;5.93;4.38;;;12.70;99.90;;;;;;4849298;29;20046;-89
2022/07/23 02:00:00;;;;;;;11.75;5.13;;;12.60;99.90;;;;;;4835143;29;20060;-93
2022/07/23 02:02:25;;;;;;;6.93;4.32;;;12.60;99.90;;;;;;4833429;29;20050;-94
2022/07/23 02:04:52;;;;;;;5.25;4.50;;;12.60;99.90;;;;;;4850507;29;20042;-93
2022/07/23 02:07:18;;;;;;;6.30;4.43;;;12.60;99.90;;;;;;4847955;29;20042;-94
2022/07/23 02:09:43;;;;;;;6.45;4.93;;;12.50;99.90;;;;;;4831279;29;20122;-94
2022/07/23 02:12:09;;;;;;;7.30;4.47;;;12.50;99.90;;;;;;4803697;29;20054;-92
2022/07/23 02:14:35;;;;;;;6.03;4.50;;;12.50;99.90;;;;;;4835378;29;20114;-94
2022/07/23 02:17:00;;;;;;;5.70;4.78;;;12.50;99.90;;;;;;4835180;29;20098;-93
2022/07/23 02:19:26;;;;;;;5.20;4.72;;;12.50;99.90;;;;;;4853376;29;20109;-90
2022/07/23 02:21:52;;;;;;;6.07;4.68;;;12.50;99.90;;;;;;4851806;29;20042;-92
2022/07/23 02:24:18;;;;;;;9.52;5.63;;;12.50;99.90;;;;;;4851913;29;20137;-92
2022/07/23 02:26:43;;;;;;;6.43;4.80;;;12.40;99.90;;;;;;4867109;29;20099;-93
2022/07/23 02:29:09;;;;;;;5.93;5.10;;;12.40;99.90;;;;;;4841499;29;20095;-94
2022/07/23 02:31:35;;;;;;;5.53;5.03;;;12.40;99.90;;;;;;4821089;29;20061;-92
2022/07/23 02:34:00;;;;;;;6.82;5.25;;;12.40;99.90;;;;;;4854258;29;20077;-93
2022/07/23 02:36:26;;;;;;;7.47;4.75;;;12.40;99.90;;;;;;4851112;29;20045;-91
2022/07/23 02:38:52;;;;;;;7.10;4.55;;;12.30;99.90;;;;;;4836160;29;20038;-91
2022/07/23 02:41:18;;;;;;;9.85;4.80;;;12.30;99.90;;;;;;4850629;29;20058;-95
2022/07/23 02:43:43;;;;;;;6.57;5.22;;;12.30;99.90;;;;;;4802928;29;20258;-95
2022/07/23 02:46:15;;;;;;;6.35;5.18;;;12.30;99.90;;;;;;4850748;29;20101;-94
2022/07/23 02:48:40;;;;;;;8.40;5.28;;;12.20;99.90;;;;;;4852204;29;20101;-94
2022/07/23 02:51:06;;;;;;;8.07;5.00;;;12.20;99.90;;;;;;4837788;29;20084;-96
2022/07/23 02:53:32;;;;;;;6.82;4.53;;;12.20;99.90;;;;;;4846284;29;20064;-95
2022/07/23 02:55:57;;;;;;;8.85;5.05;;;12.10;99.90;;;;;;4876959;29;20033;-92
2022/07/23 02:58:24;;;;;;;6.97;5.28;;;12.10;99.90;;;;;;4865283;29;20109;-93
2022/07/23 03:00:50;;;;;;;7.50;4.78;;;12.10;99.90;;;;;;4851697;29;20057;-93
2022/07/23 03:03:16;;;;;;;7.40;4.95;;;12.10;99.90;;;;;;4874785;29;20052;-93
2022/07/23 03:05:41;;;;;;;7.88;5.07;;;12.00;99.90;;;;;;4875308;29;20093;-91
2022/07/23 03:08:07;;;;;;;7.00;5.03;;;12.00;99.90;;;;;;4869062;29;20034;-93
2022/07/23 03:10:33;;;;;;;7.95;4.95;;;12.00;99.90;;;;;;4866682;29;20033;-89
2022/07/23 03:12:58;;;;;;;7.43;5.30;;;11.90;99.90;;;;;;4866923;29;20050;-93
2022/07/23 03:15:24;;;;;;;6.80;4.80;;;11.90;99.90;;;;;;4820736;29;20066;-92
2022/07/23 03:17:50;;;;;;;7.35;5.05;;;11.90;99.90;;;;;;4834628;29;20052;-90
2022/07/23 03:20:15;;;;;;;7.53;4.82;;;11.90;99.90;;;;;;4863586;29;20106;-94
2022/07/23 03:22:41;;;;;;;6.68;5.50;;;11.80;99.90;;;;;;4861934;29;20057;-95
2022/07/23 03:25:07;;;;;;;7.82;5.60;;;11.90;99.90;;;;;;4847416;29;20065;-93
2022/07/23 03:27:33;;;;;;;8.20;6.07;;;11.80;99.90;;;;;;4862422;29;20125;-90
2022/07/23 03:29:59;;;;;;;6.22;5.05;;;11.80;99.90;;;;;;4847107;29;20061;-93
2022/07/23 03:32:27;;;;;;;6.53;5.20;;;11.80;99.90;;;;;;4837117;29;20038;-92
2022/07/23 03:34:53;;;;;;;7.28;5.32;;;11.70;99.90;;;;;;4860722;29;20068;-94
2022/07/23 03:37:19;;;;;;;6.60;5.35;;;11.70;99.90;;;;;;4861182;29;20050;-93
2022/07/23 03:39:45;;;;;;;7.40;5.82;;;11.70;99.90;;;;;;4834668;29;20045;-92
2022/07/23 03:42:10;;;;;;;7.20;5.60;;;11.70;99.90;;;;;;4865552;29;20092;-94
2022/07/23 03:44:39;;;;;;;7.47;5.68;;;11.70;99.90;;;;;;4833930;29;20054;-89
2022/07/23 03:47:05;;;;;;;9.05;6.00;;;11.70;99.90;;;;;;4835101;29;20127;-93
2022/07/23 03:49:30;;;;;;;9.48;6.20;;;11.70;99.90;;;;;;4833001;29;20042;-93
2022/07/23 03:51:56;;;;;;;13.65;6.20;;;11.70;99.90;;;;;;4849522;29;20083;-92
2022/07/23 03:54:22;;;;;;;9.68;6.30;;;11.70;99.90;;;;;;4850753;29;20076;-93
2022/07/23 03:56:47;;;;;;;8.63;6.05;;;11.70;99.90;;;;;;4859741;29;20057;-92
2022/07/23 03:59:13;;;;;;;9.73;6.60;;;11.70;99.90;;;;;;4865945;29;20074;-93
2022/07/23 04:01:39;;;;;;;7.38;6.20;;;11.70;99.90;;;;;;4864843;29;20042;-91
2022/07/23 04:04:04;;;;;;;9.05;5.93;;;11.70;99.90;;;;;;4856646;29;20391;-93
2022/07/23 04:06:32;;;;;;;8.32;6.50;;;11.70;99.90;;;;;;4853418;29;20109;-90
2022/07/23 04:08:58;;;;;;;13.48;6.63;;;11.70;99.90;;;;;;4868202;29;20465;-90
2022/07/23 04:11:23;;;;;;;10.23;6.65;;;11.70;99.90;;;;;;4873805;29;20058;-93
2022/07/23 04:13:49;;;;;;;7.78;6.20;;;11.80;99.90;;;;;;4834080;29;20049;-90
2022/07/23 04:16:15;;;;;;;7.63;5.90;;;11.80;99.90;;;;;;4830979;29;20056;-90
2022/07/23 04:18:42;;;;;;;10.85;6.35;;;11.80;99.90;;;;;;4846345;29;20101;-91
2022/07/23 04:21:07;;;;;;;10.38;6.93;;;11.90;99.90;;;;;;4862183;29;20129;-91
2022/07/23 04:23:33;;;;;;;9.23;6.38;;;11.90;99.90;;;;;;4843770;29;20072;-91
2022/07/23 04:25:58;;;;;;;10.80;5.97;;;12.00;99.90;;;;;;4834071;29;20182;-89
2022/07/23 04:28:24;;;;;;;11.55;7.05;;;12.00;99.90;;;;;;4865982;29;20133;-89
2022/07/23 04:30:57;;;;;;;9.07;6.20;;;12.10;99.90;;;;;;4838677;29;20034;-89
2022/07/23 04:33:23;;;;;;;10.93;6.50;;;12.10;99.90;;;;;;4853345;29;20066;-89
2022/07/23 04:35:48;;;;;;;7.30;6.03;;;12.20;99.90;;;;;;4868787;29;20038;-90
2022/07/23 04:38:14;;;;;;;9.45;6.13;;;12.20;99.90;;;;;;4868855;29;20034;-90
2022/07/23 04:40:40;;;;;;;12.68;6.32;;;12.30;99.90;;;;;;4823388;29;20058;-91
2022/07/23 04:43:05;;;;;;;9.57;6.43;;;12.40;99.90;;;;;;4831655;29;20054;-92
2022/07/23 04:45:31;;;;;;;7.55;6.18;;;12.50;99.90;;;;;;4831948;29;20053;-90
2022/07/23 04:47:57;;;;;;;7.80;5.60;;;12.70;99.90;;;;;;4847557;29;20056;-90
2022/07/23 04:50:22;;;;;;;6.55;5.80;;;12.90;99.90;;;;;;4831628;29;20057;-90
2022/07/23 04:52:48;;;;;;;10.43;5.72;;;13.20;99.90;;;;;;4852222;29;20164;-91
2022/07/23 04:55:14;;;;;;;9.77;6.13;;;13.60;99.90;;;;;;4852608;29;20064;-89
2022/07/23 04:57:40;;;;;;;6.88;4.72;;;14.00;99.90;;;;;;4830323;29;20058;-90
2022/07/23 05:00:06;;;;;;;7.00;4.43;;;14.70;99.90;;;;;;4846851;29;20098;-90
2022/07/23 05:02:32;;;;;;;5.70;4.40;;;15.20;99.90;;;;;;4815362;29;20510;-91
2022/07/23 05:04:57;;;;;;;7.15;4.75;;;15.60;99.90;;;;;;4830415;29;20050;-92
2022/07/23 05:07:24;;;;;;;5.88;3.92;;;15.70;99.90;;;;;;4846926;29;20053;-91
2022/07/23 05:09:49;;;;;;;6.30;3.80;;;15.90;99.90;;;;;;4846505;29;20145;-91
2022/07/23 05:12:15;;;;;;;5.07;3.88;;;16.70;99.90;;;;;;4846742;29;20089;-93
2022/07/23 05:14:41;;;;;;;4.88;3.80;;;17.00;99.90;;;;;;4837771;29;20049;-93
2022/07/23 05:17:07;;;;;;;5.43;3.65;;;17.50;99.90;;;;;;4868205;29;20103;-91
2022/07/23 05:19:34;;;;;;;4.45;3.55;;;17.70;99.90;;;;;;4827480;29;20050;-92
2022/07/23 05:21:59;;;;;;;5.95;3.58;;;18.10;99.90;;;;;;4858034;29;20053;-94
2022/07/23 05:24:25;;;;;;;3.78;3.42;;;18.00;99.90;;;;;;4858057;29;20056;-92
2022/07/23 05:26:52;;;;;;;3.75;3.40;;;18.60;99.90;;;;;;4825562;29;20566;-90
2022/07/23 05:29:18;;;;;;;8.68;3.50;;;18.30;99.90;;;;;;4864835;29;20049;-94
2022/07/23 05:31:43;;;;;;;3.70;3.40;;;18.00;99.90;;;;;;4827814;29;20404;-93
2022/07/23 05:34:09;;;;;;;4.05;3.50;;;18.40;99.90;;;;;;4860622;29;20094;-93
2022/07/23 05:36:35;;;;;;;4.65;3.20;;;18.90;99.90;;;;;;4860283;29;20133;-95
2022/07/23 05:39:00;;;;;;;4.75;3.17;;;18.80;99.90;;;;;;4847511;29;20054;-96
2022/07/23 05:41:49;;;;;;;4.43;3.20;;;18.80;99.90;;;;;;5161282;23;20088;31
2022/07/23 05:44:29;;;;;;;9.00;3.55;;;19.30;99.90;;;;;;4825053;29;20054;-95
2022/07/23 05:46:55;;;;;;;4.93;3.50;;;19.20;99.90;;;;;;4827909;29;20057;-92
2022/07/23 05:49:27;;;;;;;10.82;3.85;;;19.30;99.90;;;;;;4816598;29;20065;-95
2022/07/23 05:51:53;;;;;;;4.43;3.28;;;20.40;99.90;;;;;;5232118;23;20141;-89
2022/07/23 05:54:19;;;;;;;4.40;3.30;;;19.90;99.90;;;;;;4960587;24;20042;-92
2022/07/23 05:56:45;;;;;;;4.75;3.00;;;19.20;99.90;;;;;;4815869;29;20050;-93
2022/07/23 05:59:12;;;;;;;4.88;3.00;;;19.50;99.90;;;;;;4815276;29;20065;-92
2022/07/23 06:01:41;;;;;;;4.63;3.00;;;19.80;99.90;;;;;;4948525;24;20045;-96
2022/07/23 06:04:07;;;;;;;3.00;2.75;;;20.10;99.90;;;;;;5164703;24;20049;-94
2022/07/23 06:06:35;;;;;;;5.00;3.00;;;20.20;99.90;;;;;;4847509;29;20065;-96
2022/07/23 06:09:01;;;;;;;3.05;2.65;;;20.40;99.90;;;;;;4817095;29;20121;-93
2022/07/23 06:11:27;;;;;;;3.65;2.63;;;20.30;99.90;;;;;;4845219;29;20054;-96
2022/07/23 06:13:53;;;;;;;3.50;2.42;;;20.90;99.90;;;;;;4878693;23;20046;-88
2022/07/23 06:16:19;;;;;;;2.67;2.33;;;20.80;99.90;;;;;;4983135;23;20065;-94
2022/07/23 06:18:48;;;;;;;2.55;2.10;;;21.80;99.90;;;;;;5112632;23;20245;31
2022/07/23 06:21:17;;;;;;;6.93;2.15;;;21.00;99.90;;;;;;4945729;24;20050;-94
2022/07/23 06:23:45;;;;;;;2.20;2.00;;;21.50;99.90;;;;;;4921549;23;20046;-94
2022/07/23 06:26:13;;;;;;;3.13;1.70;;;22.30;99.90;;;;;;4827793;29;20058;-94
2022/07/23 06:28:39;;;;;;;2.55;1.70;;;22.80;99.90;;;;;;4841049;29;20075;-94
2022/07/23 06:31:12;;;;;;;6.15;1.80;;;22.00;99.90;;;;;;4843313;29;20034;-95
2022/07/23 06:33:38;;;;;;;2.15;1.50;;;21.20;99.90;;;;;;4827712;29;20062;-96
2022/07/23 06:36:11;;;;;;;4.82;1.67;;;22.40;99.90;;;;;;4845895;29;20490;-95
2022/07/23 06:39:00;;;;;;;2.67;1.60;;;20.80;99.90;;;;;;4953838;23;20028;-95
2022/07/23 06:41:25;;;;;;;1.85;1.42;;;21.90;99.90;;;;;;4849883;29;20086;-96
2022/07/23 06:46:27;;;;;;;2.47;1.42;;;22.50;99.90;;;;;;5116773;23;20072;-93
2022/07/23 06:48:59;;;;;;;1.75;1.20;;;20.70;99.90;;;;;;4839295;29;20098;-96
2022/07/23 06:51:28;;;;;;;5.78;1.10;;;22.70;99.90;;;;;;4846257;29;20053;-95
2022/07/23 06:53:57;;;;;;;1.90;1.20;;;22.90;99.90;;;;;;4830534;29;20053;-96
2022/07/23 06:56:25;;;;;;;1.85;1.20;;;22.50;99.90;;;;;;4867908;29;20177;-95
2022/07/23 06:58:51;;;;;;;2.08;1.00;;;22.40;99.90;;;;;;4857428;29;20077;-96
2022/07/23 07:01:19;;;;;;;2.15;1.05;;;22.70;99.90;;;;;;4832250;29;20045;-96
2022/07/23 07:03:48;;;;;;;2.58;0.90;;;22.90;99.90;;;;;;4857528;29;20117;-95
2022/07/23 07:06:19;;;;;;;1.27;0.85;;;22.90;99.90;;;;;;4845904;29;20059;-95
2022/07/23 07:08:55;;;;;;;0.88;0.80;;;22.60;99.90;;;;;;4873876;29;20060;-95
2022/07/23 07:11:25;;;;;;;3.88;0.90;;;22.90;99.90;;;;;;4862396;24;20045;-94
2022/07/23 07:16:30;;;;;;;2.33;0.90;;;23.00;99.90;;;;;;4868463;24;20050;-88
2022/07/23 07:18:56;;;;;;;2.08;0.93;;;23.00;99.90;;;;;;4852357;29;20069;-88
2022/07/23 07:21:25;;;;;;;0.93;0.80;;;23.70;99.90;;;;;;4864315;29;20077;-88
2022/07/23 07:23:50;;;;;;;1.38;0.85;;;23.40;99.90;;;;;;4851978;29;20017;-88
2022/07/23 07:26:19;;;;;;;1.55;0.73;;;22.80;99.90;;;;;;4869150;24;20129;-92
2022/07/23 07:28:48;;;;;;;1.63;0.85;;;23.10;99.90;;;;;;4865610;29;20068;-95
2022/07/23 07:31:19;;;;;;;0.80;0.80;;;22.10;99.90;;;;;;4906041;23;20050;-93
2022/07/23 07:33:45;;;;;;;2.00;0.80;;;21.80;99.90;;;;;;4828653;29;20061;-95
2022/07/23 07:36:14;;;;;;;1.00;0.70;;;22.10;99.90;;;;;;4810901;29;20034;-95
2022/07/23 07:38:40;;;;;;;0.85;0.85;;;22.10;99.90;;;;;;4959948;24;20058;-94
2022/07/23 07:41:07;;;;;;;3.88;0.90;;;21.60;99.90;;;;;;4940941;24;20081;-87
2022/07/23 07:43:33;;;;;;;1.15;0.70;;;21.80;99.90;;;;;;4882287;29;20165;-95
2022/07/23 07:46:02;;;;;;;1.20;0.60;;;20.90;99.90;;;;;;5032526;23;20377;-89
2022/07/23 07:48:27;;;;;;;1.20;0.80;;;24.10;99.90;;;;;;4835185;29;20045;-93
2022/07/23 07:50:59;;;;;;;0.80;0.80;;;23.10;99.90;;;;;;4814756;29;20060;-96
2022/07/23 07:53:25;;;;;;;0.82;0.80;;;23.00;99.90;;;;;;4878039;23;20062;-95
2022/07/23 07:55:52;;;;;;;1.58;0.55;;;22.80;99.90;;;;;;4862831;29;20110;-94
2022/07/23 07:58:18;;;;;;;0.88;0.50;;;22.20;99.90;;;;;;4888752;23;20061;-94
2022/07/23 08:00:46;;;;;;;1.00;0.50;;;21.70;99.90;;;;;;4869747;29;20073;-94
2022/07/23 08:03:14;;;;;;;1.10;0.82;;;22.40;99.90;;;;;;4852406;29;20056;-94
2022/07/23 08:05:40;;;;;;;0.90;0.70;;;20.30;99.90;;;;;;4982081;24;20122;-94
2022/07/23 08:08:14;;;;;;;1.65;0.77;;;19.70;99.90;;;;;;4817080;29;20042;-92
2022/07/23 08:10:43;;;;;;;;;;;20.50;99.90;;;;;;4864496;29;20058;-95
2022/07/23 08:13:16;;;;;;;1.42;0.70;;;20.00;99.90;;;;;;4843386;29;20258;-89
2022/07/23 08:15:42;;;;;;;0.80;0.70;;;19.70;99.90;;;;;;4970642;24;20057;-96
2022/07/23 08:18:07;;;;;;;1.98;1.00;;;19.90;99.90;;;;;;4862273;29;20357;-92
2022/07/23 08:20:33;;;;;;;3.53;0.90;;;20.50;99.90;;;;;;4811195;29;20099;-93
2022/07/23 08:23:01;;;;;;;1.60;0.65;;;21.70;99.90;;;;;;4848438;29;20053;-92
2022/07/23 08:25:29;;;;;;;2.63;0.60;;;22.60;99.90;;;;;;4837907;29;20135;-90
2022/07/23 08:27:57;;;;;;;2.05;0.60;;;23.20;99.90;;;;;;4841826;29;20053;-90
2022/07/23 08:30:23;;;;;;;0.85;0.80;;;23.60;99.90;;;;;;4848705;29;20067;-90
2022/07/23 08:33:15;;;;;;;0.60;0.60;;;24.00;99.90;;;;;;4869044;29;20045;-90
2022/07/23 08:35:45;;;;;;;1.95;0.70;;;23.40;99.90;;;;;;4855608;29;20061;-89
2022/07/23 08:38:11;;;;;;;1.48;0.60;;;22.90;99.90;;;;;;4862275;29;20036;-89
2022/07/23 08:40:41;;;;;;;0.70;0.55;;;22.10;99.90;;;;;;4864207;29;20081;-89
2022/07/23 08:43:09;;;;;;;2.75;0.68;;;21.80;99.90;;;;;;4865913;29;20085;-89
2022/07/23 08:45:42;;;;;;;0.73;0.40;;;21.30;99.90;;;;;;4843399;29;20110;-90
2022/07/23 08:48:14;;;;;;;1.10;0.60;;;21.00;99.90;;;;;;4928761;24;20046;-92
2022/07/23 08:50:46;;;;;;;1.13;0.70;;;22.00;99.90;;;;;;4850583;29;20074;-93
2022/07/23 08:53:12;;;;;;;0.57;0.43;;;22.10;99.90;;;;;;4842776;29;20050;-90
2022/07/23 08:55:37;;;;;;;0.80;0.60;;;22.70;99.90;;;;;;4834766;29;20046;-90
2022/07/23 08:58:03;;;;;;;0.90;0.50;;;22.30;99.90;;;;;;4820886;29;20130;-90
2022/07/23 09:00:29;;;;;;;0.50;0.50;;;21.60;99.90;;;;;;4841284;29;20046;-91
2022/07/23 09:02:54;;;;;;;0.65;0.60;;;22.10;99.90;;;;;;4840011;29;20501;-91
2022/07/23 09:05:20;;;;;;;0.50;0.50;;;21.90;99.90;;;;;;4836077;29;20558;-91
2022/07/23 09:08:21;;;;;;;1.17;0.60;;;22.10;99.90;;;;;;4821732;29;20125;-90
2022/07/23 09:10:53;;;;;;;0.60;0.60;;;22.90;99.90;;;;;;4809793;29;20479;-90
2022/07/23 09:13:32;;;;;;;0.60;0.50;;;23.40;99.90;;;;;;4834643;29;20049;-91
2022/07/23 09:16:06;;;;;;;0.60;0.60;;;24.30;99.90;;;;;;4842209;29;20479;-93
2022/07/23 09:18:43;;;;;;;0.70;0.52;;;24.80;99.90;;;;;;4858144;29;20125;-89
2022/07/23 09:21:18;;;;;;;0.57;0.50;;;25.10;99.00;;;;;;4847513;29;20046;-92
2022/07/23 09:23:49;;;;;;;0.45;0.43;;;24.80;99.50;;;;;;4845596;29;20109;-92
2022/07/23 09:26:33;;;;;;;0.95;0.50;;;24.40;99.20;;;;;;4837430;29;20050;-91
2022/07/23 09:29:32;;;;;;;1.05;0.60;;;24.60;99.60;;;;;;4828881;29;20055;-91
2022/07/23 09:31:59;;;;;;;0.60;0.60;;;23.60;99.80;;;;;;4833665;29;20058;-90
2022/07/23 09:34:27;;;;;;;1.30;1.00;;;24.70;99.90;;;;;;4837086;29;20042;-92
2022/07/23 09:36:54;;;;;;;2.97;0.82;;;25.30;98.30;;;;;;4841667;29;20049;-91
2022/07/23 09:39:37;;;;;;;1.05;0.60;;;25.00;98.90;;;;;;4822013;29;20054;-88
2022/07/23 09:42:23;;;;;;;0.60;0.47;;;23.90;99.40;;;;;;4837044;29;20134;-93
2022/07/23 09:44:54;;;;;;;0.65;0.60;;;23.50;99.70;;;;;;4824113;29;20491;-93
2022/07/23 09:47:20;;;;;;;1.33;0.70;;;23.40;99.90;;;;;;4805800;29;20570;-91
2022/07/23 09:50:09;;;;;;;0.80;0.70;;;23.30;99.90;;;;;;4819035;29;20054;-93
2022/07/23 09:52:42;;;;;;;0.57;0.57;;;23.70;99.90;;;;;;4848789;29;20054;-93
2022/07/23 09:55:08;;;;;;;1.50;0.70;;;23.50;99.90;;;;;;4823425;29;20092;-93
2022/07/23 09:57:34;;;;;;;0.98;0.68;;;23.00;99.90;;;;;;4825262;29;20098;-92
2022/07/23 10:00:10;;;;;;;0.90;0.80;;;23.10;99.90;;;;;;4829639;29;20039;-93
2022/07/23 10:02:39;;;;;;;1.38;0.80;;;23.70;99.90;;;;;;4837157;24;20042;-90
2022/07/23 10:05:05;;;;;;;1.90;0.70;;;23.40;99.90;;;;;;4817648;29;20057;-91
2022/07/23 10:07:36;;;;;;;0.80;0.80;;;23.90;99.90;;;;;;4841062;29;20046;-90
2022/07/23 10:10:05;;;;;;;1.33;0.70;;;23.60;99.90;;;;;;4807901;29;20146;-92
2022/07/23 10:15:00;;;;;;;0.93;0.60;;;23.20;99.90;;;;;;4816314;29;20101;-90
2022/07/23 10:17:27;;;;;;;1.75;0.77;;;22.90;99.90;;;;;;4814962;29;20051;-91
2022/07/23 10:19:53;;;;;;;1.27;0.65;;;23.40;99.90;;;;;;4812478;29;20058;-92
2022/07/23 10:22:27;;;;;;;2.05;0.77;;;23.40;99.90;;;;;;4794120;29;20106;-92
2022/07/23 10:25:00;;;;;;;1.27;0.65;;;23.40;99.90;;;;;;4796242;29;20050;-92
2022/07/23 10:27:53;;;;;;;0.73;0.67;;;23.00;99.90;;;;;;4797201;29;20050;-90
2022/07/23 10:30:44;;;;;;;0.70;0.70;;;22.50;99.90;;;;;;4813005;29;20189;-91
2022/07/23 10:33:17;;;;;;;2.33;0.73;;;23.10;99.90;;;;;;4832988;29;20054;-93
2022/07/23 10:35:43;;;;;;;;;;;23.40;99.90;;;;;;4800891;29;20058;-93
2022/07/23 10:38:23;;;;;;;1.30;0.73;;;23.10;99.90;;;;;;4818893;29;20409;-93
2022/07/23 10:41:03;;;;;;;0.82;0.80;;;23.40;99.90;;;;;;4789018;29;20058;-96
2022/07/23 10:43:29;;;;;;;1.00;0.90;;;23.50;99.90;;;;;;4804040;29;20062;-93
2022/07/23 10:45:55;;;;;;;2.38;0.80;;;23.40;99.90;;;;;;4808542;29;20053;-95
2022/07/23 10:48:40;;;;;;;0.80;0.80;;;23.30;99.90;;;;;;4820511;29;20046;-92
2022/07/23 10:51:15;;;;;;;0.90;0.70;;;23.30;99.90;;;;;;4824875;29;20067;-93
2022/07/23 10:53:56;;;;;;;2.35;0.80;;;22.70;99.90;;;;;;4826030;29;20058;-92
2022/07/23 10:56:50;;;;;;;0.82;0.82;;;22.50;99.90;;;;;;4808894;29;20058;-92
2022/07/23 10:59:16;;;;;;;1.20;1.00;;;22.40;99.90;;;;;;4827515;29;20055;-96
2022/07/23 11:01:42;;;;;;;1.13;0.70;;;22.40;99.90;;;;;;4819279;29;20050;-93
2022/07/23 11:04:08;;;;;;;2.70;0.90;;;22.40;99.90;;;;;;4799029;29;20055;-92
2022/07/23 11:06:48;;;;;;;2.38;0.82;;;22.60;99.90;;;;;;4813264;29;20058;-92
2022/07/23 11:09:23;;;;;;;1.30;0.80;;;22.70;99.90;;;;;;4801083;29;20051;-93
2022/07/23 11:11:49;;;;;;;0.90;0.82;;;22.90;99.90;;;;;;4786315;29;20310;-91
2022/07/23 11:14:14;;;;;;;0.90;0.90;;;23.10;99.90;;;;;;4818954;29;20047;-91
2022/07/23 11:16:46;;;;;;;1.45;1.00;;;23.20;99.90;;;;;;4827837;29;20050;-93
2022/07/23 11:19:12;;;;;;;1.58;1.00;;;23.40;99.90;;;;;;4823112;29;20110;-92
2022/07/23 11:21:37;;;;;;;1.42;0.90;;;23.60;99.90;;;;;;4847774;29;20124;-88
2022/07/23 11:24:07;;;;;;;1.20;0.80;;;23.60;99.90;;;;;;4832628;29;20050;-94
2022/07/23 11:26:44;;;;;;;1.83;1.00;;;23.10;99.90;;;;;;4832306;29;20050;-89
2022/07/23 11:29:44;;;;;;;1.25;0.90;;;23.20;99.90;;;;;;4831956;29;20042;-93
2022/07/23 11:32:24;;;;;;;1.55;1.10;;;23.40;99.90;;;;;;4844551;29;20054;-92
2022/07/23 11:34:52;;;;;;;1.00;0.95;;;23.50;99.90;;;;;;4815074;29;20065;-90
2022/07/23 11:37:35;;;;;;;4.32;1.17;;;24.00;99.90;;;;;;4826361;29;20511;-90
2022/07/23 11:40:01;;;;;;;2.47;1.17;;;23.70;99.90;;;;;;4814263;29;20057;-92
2022/07/23 11:42:27;;;;;;;1.58;1.13;;;23.90;99.90;;;;;;4815863;29;20143;-89
2022/07/23 11:44:53;;;;;;;1.58;1.30;;;24.00;99.90;;;;;;4823109;29;20706;-88
2022/07/23 11:47:24;;;;;;;1.45;1.15;;;23.90;99.90;;;;;;4810221;29;20135;-88
2022/07/23 11:50:02;;;;;;;1.63;1.00;;;23.90;99.90;;;;;;4839425;29;20055;-86
2022/07/23 11:52:31;;;;;;;2.35;1.00;;;23.40;99.90;;;;;;4811238;29;20092;-87
2022/07/23 11:55:08;;;;;;;1.85;1.30;;;22.90;99.90;;;;;;4823610;29;20046;-88
2022/07/23 11:57:35;;;;;;;2.25;1.10;;;23.90;99.90;;;;;;4837418;29;20106;-88
2022/07/23 12:00:10;;;;;;;1.13;1.02;;;24.00;99.90;;;;;;4799463;29;20131;-89
2022/07/23 12:02:48;;;;;;;1.50;1.20;;;22.80;99.90;;;;;;4819760;29;20074;-89
2022/07/23 12:05:16;;;;;;;1.73;1.00;;;24.20;99.90;;;;;;4802828;29;20050;-87
2022/07/23 12:07:44;;;;;;;0.93;0.93;;;24.50;99.90;;;;;;4806073;29;20117;-88
2022/07/23 12:10:19;;;;;;;1.60;1.20;;;24.30;99.90;;;;;;4798562;29;20138;-88
2022/07/23 12:12:53;;;;;;;1.63;1.10;;;24.20;99.90;;;;;;4815496;29;20047;-88
2022/07/23 12:15:32;;;;;;;3.55;1.40;;;24.10;99.90;;;;;;4807683;29;20080;-88
2022/07/23 12:17:58;;;;;;;2.72;1.00;;;23.20;99.90;;;;;;4798955;29;20051;-92
2022/07/23 12:20:30;;;;;;;1.63;1.10;;;23.40;99.90;;;;;;4801621;29;20055;-92
2022/07/23 12:23:21;;;;;;;3.13;1.40;;;23.90;99.90;;;;;;4808795;29;20054;-94
2022/07/23 12:26:31;;;;;;;3.22;1.40;;;24.00;99.90;;;;;;4797369;29;20065;-92
2022/07/23 12:29:13;;;;;;;1.70;1.30;;;23.80;99.90;;;;;;4814520;29;20058;-93
2022/07/23 12:31:39;;;;;;;4.18;1.70;;;23.90;99.90;;;;;;4828002;29;20074;-92
2022/07/23 12:34:52;;;;;;;;;;;;;;;;;;;;;
2022/07/23 12:37:35;;;;;;;1.13;1.00;;;23.30;99.90;;;;;;4827516;29;20060;-91
2022/07/23 12:40:48;;;;;;;1.95;1.27;;;23.40;99.90;;;;;;4805279;29;20103;-94
2022/07/23 12:43:54;;;;;;;1.40;1.30;;;23.50;99.90;;;;;;4828878;29;20050;-91
2022/07/23 12:46:20;;;;;;;2.05;1.40;;;23.80;99.90;;;;;;5073042;24;20178;-92
2022/07/23 12:52:41;;;;;;;2.25;1.30;;;22.60;99.90;;;;;;4790935;29;20039;-93
2022/07/23 13:02:15;;;;;;;;;;;;;;;;;;;;;
2022/07/23 13:05:12;;;;;;;5.13;1.40;;;23.60;99.90;;;;;;4816510;29;20042;-95
2022/07/23 13:07:44;;;;;;;3.35;1.67;;;23.20;99.90;;;;;;4803434;29;20046;-94
2022/07/23 13:10:14;;;;;;;1.55;1.40;;;23.40;99.90;;;;;;4786824;29;20119;-93
2022/07/23 13:12:46;;;;;;;1.25;1.15;;;23.70;99.90;;;;;;4787656;29;20106;-93
2022/07/23 13:15:14;;;;;;;1.65;1.27;;;24.00;99.90;;;;;;4795085;29;20050;-94
2022/07/23 13:17:50;;;;;;;2.85;1.23;;;24.10;99.90;;;;;;4769717;29;20053;-94
2022/07/23 13:20:16;;;;;;;1.85;1.23;;;24.20;99.90;;;;;;4796716;29;20058;-91